Hauptseite
METAR-TAF:

METAR-TAF

Flughäfen :

Easton, Maryland, Vereinigte Staaten

Breite: 38-48N, Länge: 076-04W, Höhe: 22 m

Beobachtung

Neuester Wetterbericht von vor 36 Minuten, um 20:45 UTC
Wind 14 kt aus Nord/Nordwest, Böen bis zu 20 kt
Temperatur 16°C
Luftfeuchtigkeit 42%
Luftdruck 1009 hPa
Sichtweite: 16.1 km
Durchbrochene Bewölkung in der Höhe von 6000 ft

METAR: KESN 032045Z 34014G20KT 10SM BKN060 16/03 A2981

Zeit: 17:21 (21:21 UTC)


TAF: fehlend

Wetterbeobachtungen und Prognosen von mehr als 4000 Flughäfen (METAR und TAF Bericht).

Die verfügbaren Stationen werden durch gelbe und rote Markierungen auf der Karte dargestellt.

Führen Sie die Maus auf sie, um den Namen der Station zu sehen.

Darauf klicken, um die Beobachtung von Wetterbeobachtungen und Prognosen zu sehen.

Um die Karte zu ändern : klicken Sie auf den grünen Tasten mit einem schwarzen Kreuz Zum Vergrößern, auf den grünen Button mit einem Gedankenstrich zu verkleinern, oder auf die grünen Pfeile für benachbarte Karten.


METAR-TAF: